East St Louis, Illinois
Current Conditions -  °F | °C
As of 10:08 PM on Sunday 23 Nov 2014 (Local Time) from KCPS Reporting Station
Overcast Overcast  
Wind Chill: 56°   Ceiling: 1000
Heat Index: 56°   Visibility: 10mi
Dew Point: 54°   Wind: 5mph
Humidity: 93%   Direction: 210°SSW
Pressure: 29.25"   Gusts: NA
Location:  38.6386°N, 90.1321°W
Report Text: KCPS 240408Z AUTO 21004KT 10SM FEW006 BKN010 OVC026 13/12 A2925 RMK AO2 T01330122 TSNO
Loading
Personal Weather Stations






























Interactive Weather Map New forecast layout! Learn more

10-Day Weather Forecast

Advertisements
Track Severe Weather on mobile